createdAt,value
2022-10-29T00:02:23.109Z,16.10
2022-10-29T00:04:56.655Z,13.40
2022-10-29T00:07:30.479Z,17.60
2022-10-29T00:10:04.687Z,16.80
2022-10-29T00:12:38.590Z,16.70
2022-10-29T00:15:14.479Z,16.40
2022-10-29T00:17:48.216Z,15.00
2022-10-29T00:20:21.934Z,15.30
2022-10-29T00:22:57.832Z,12.60
2022-10-29T00:25:31.706Z,14.00
2022-10-29T00:28:05.352Z,15.30
2022-10-29T00:30:39.474Z,11.90
2022-10-29T00:33:13.120Z,14.30
2022-10-29T00:35:55.355Z,16.60
2022-10-29T00:38:29.501Z,15.00
2022-10-29T00:41:04.531Z,15.80
2022-10-29T00:43:42.743Z,12.90
2022-10-29T00:46:22.361Z,14.60
2022-10-29T00:49:00.187Z,15.30
2022-10-29T00:51:35.933Z,15.00
2022-10-29T00:54:16.847Z,16.50
2022-10-29T00:56:56.834Z,16.00
2022-10-29T00:59:31.358Z,12.10
2022-10-29T01:02:05.361Z,14.00
2022-10-29T01:04:40.907Z,12.00
2022-10-29T01:07:15.622Z,16.50
2022-10-29T01:09:50.084Z,15.50
2022-10-29T01:12:57.748Z,12.70
2022-10-29T01:15:42.117Z,15.20
2022-10-29T01:18:25.933Z,16.90
2022-10-29T01:21:36.625Z,14.50
2022-10-29T01:24:53.801Z,14.40
2022-10-29T01:28:04.508Z,13.80
2022-10-29T01:31:09.339Z,12.30
2022-10-29T01:33:54.072Z,12.60
2022-10-29T01:36:41.742Z,16.30
2022-10-29T01:39:29.439Z,12.70
2022-10-29T01:42:13.708Z,15.50
2022-10-29T01:44:55.561Z,15.20
2022-10-29T01:47:40.025Z,12.50
2022-10-29T01:50:19.145Z,15.50
2022-10-29T01:52:55.899Z,17.20
2022-10-29T01:55:35.673Z,14.80
2022-10-29T01:58:10.952Z,18.10
2022-10-29T02:00:56.523Z,16.50
2022-10-29T02:03:45.107Z,14.70
2022-10-29T02:06:34.317Z,14.20
2022-10-29T02:09:17.146Z,19.80
2022-10-29T02:11:58.987Z,14.20
2022-10-29T02:14:38.182Z,15.20
2022-10-29T02:17:12.883Z,13.20
2022-10-29T02:19:46.512Z,15.30
2022-10-29T02:22:20.728Z,14.40
2022-10-29T02:24:54.430Z,14.10
2022-10-29T02:27:28.049Z,14.50
2022-10-29T02:30:01.814Z,11.60
2022-10-29T02:32:35.326Z,14.50
2022-10-29T02:35:10.863Z,13.50
2022-10-29T02:37:44.599Z,13.60
2022-10-29T02:40:19.027Z,15.20
2022-10-29T02:42:53.133Z,14.00
2022-10-29T02:45:26.832Z,15.90
2022-10-29T02:48:00.837Z,15.50
2022-10-29T02:50:34.537Z,13.40
2022-10-29T02:53:08.185Z,11.30
2022-10-29T02:55:41.775Z,15.60
2022-10-29T02:58:15.441Z,14.10
2022-10-29T03:00:51.975Z,15.90
2022-10-29T03:03:25.672Z,15.20
2022-10-29T03:05:59.364Z,11.30
2022-10-29T03:08:33.212Z,16.50
2022-10-29T03:11:06.954Z,14.10
2022-10-29T03:13:41.293Z,13.10
2022-10-29T03:16:15.780Z,13.90
2022-10-29T03:18:49.369Z,14.70
2022-10-29T03:21:22.977Z,13.50
2022-10-29T03:23:56.673Z,14.30
2022-10-29T03:26:30.890Z,14.10
2022-10-29T03:29:04.940Z,12.20
2022-10-29T03:31:38.465Z,16.20
2022-10-29T03:34:12.188Z,12.80
2022-10-29T03:36:45.786Z,14.90
2022-10-29T03:39:19.463Z,14.30
2022-10-29T03:41:53.214Z,11.60
2022-10-29T03:44:26.777Z,13.60
2022-10-29T03:47:00.362Z,12.60
2022-10-29T03:49:33.914Z,14.50
2022-10-29T03:52:07.921Z,13.10
2022-10-29T03:54:41.719Z,12.50
2022-10-29T03:57:15.435Z,15.40
2022-10-29T03:59:52.522Z,13.80
2022-10-29T04:02:27.551Z,14.40
2022-10-29T04:05:01.554Z,9.90
2022-10-29T04:07:35.383Z,12.60
2022-10-29T04:10:10.846Z,9.30
2022-10-29T04:12:49.956Z,9.40
2022-10-29T04:15:23.740Z,7.90
2022-10-29T04:17:57.576Z,9.60
2022-10-29T04:20:59.755Z,12.90
2022-10-29T04:28:17.898Z,10.60
2022-10-29T04:29:13.516Z,12.30
2022-10-29T04:31:47.403Z,12.40
2022-10-29T04:34:21.487Z,12.70
2022-10-29T04:36:55.701Z,13.10
2022-10-29T04:39:30.007Z,12.60
2022-10-29T04:42:03.918Z,10.80
2022-10-29T04:44:37.932Z,12.00
2022-10-29T04:47:11.628Z,10.30
2022-10-29T04:49:45.256Z,14.50
2022-10-29T04:52:19.224Z,11.50
2022-10-29T04:54:53.202Z,12.10
2022-10-29T04:57:26.802Z,14.20
2022-10-29T05:00:00.406Z,11.80
2022-10-29T05:02:34.028Z,11.90
2022-10-29T05:05:09.150Z,11.30
2022-10-29T05:07:42.835Z,10.60
2022-10-29T05:10:16.669Z,13.30
2022-10-29T05:12:57.244Z,11.10
2022-10-29T05:15:32.669Z,13.10
2022-10-29T05:18:07.556Z,12.80
2022-10-29T05:20:41.494Z,13.50
2022-10-29T05:23:16.245Z,14.30
2022-10-29T05:25:51.730Z,14.40
2022-10-29T05:28:27.012Z,13.20
2022-10-29T05:31:03.496Z,12.00
2022-10-29T05:33:37.103Z,10.60
2022-10-29T05:36:11.336Z,11.40
2022-10-29T05:38:44.874Z,13.60
2022-10-29T05:41:19.034Z,14.60
2022-10-29T05:43:54.512Z,10.90
2022-10-29T05:46:28.069Z,12.30
2022-10-29T05:49:02.127Z,14.20
2022-10-29T05:51:36.002Z,12.10
2022-10-29T05:54:10.226Z,14.90
2022-10-29T05:56:44.746Z,13.70
2022-10-29T05:59:18.344Z,13.70
2022-10-29T06:01:52.070Z,12.20
2022-10-29T06:04:26.151Z,16.60
2022-10-29T06:07:00.145Z,14.10
2022-10-29T06:09:33.932Z,11.30
2022-10-29T06:12:09.120Z,15.90
2022-10-29T06:14:43.211Z,11.10
2022-10-29T06:17:17.072Z,14.10
2022-10-29T06:19:50.891Z,15.70
2022-10-29T06:22:24.805Z,15.30
2022-10-29T06:24:58.581Z,15.30
2022-10-29T06:27:32.881Z,15.30
2022-10-29T06:30:07.998Z,14.50
2022-10-29T06:32:41.683Z,13.40
2022-10-29T06:35:15.774Z,13.50
2022-10-29T06:37:49.482Z,13.10
2022-10-29T06:40:23.241Z,14.20
2022-10-29T06:43:05.605Z,14.80
2022-10-29T06:45:39.400Z,12.50
2022-10-29T06:48:19.111Z,16.30
2022-10-29T06:50:55.439Z,15.10
2022-10-29T06:53:30.075Z,14.10
2022-10-29T06:56:04.873Z,16.40
2022-10-29T06:58:38.705Z,15.90
2022-10-29T07:01:12.602Z,13.80
2022-10-29T07:03:46.258Z,16.20
2022-10-29T07:06:20.025Z,14.40
2022-10-29T07:08:53.877Z,18.00
2022-10-29T07:11:27.747Z,15.90
2022-10-29T07:14:02.154Z,14.90
2022-10-29T07:16:36.053Z,13.90
2022-10-29T07:19:10.975Z,16.10
2022-10-29T07:21:50.079Z,17.80
2022-10-29T07:24:23.851Z,16.20
2022-10-29T07:26:57.655Z,13.60
2022-10-29T07:29:31.482Z,14.70
2022-10-29T07:32:05.625Z,12.50
2022-10-29T07:34:39.342Z,15.40
2022-10-29T07:37:13.924Z,14.30
2022-10-29T07:39:47.858Z,11.60
2022-10-29T07:42:21.671Z,20.00
2022-10-29T07:44:55.571Z,15.30
2022-10-29T07:47:29.679Z,13.80
2022-10-29T07:50:03.517Z,12.70
2022-10-29T07:52:37.989Z,13.90
2022-10-29T07:55:13.442Z,11.00
2022-10-29T07:57:47.115Z,12.50
2022-10-29T08:00:22.173Z,12.20
2022-10-29T08:02:58.472Z,9.70
2022-10-29T08:05:34.138Z,11.60
2022-10-29T08:08:08.578Z,12.00
2022-10-29T08:10:42.889Z,12.30
2022-10-29T08:13:17.112Z,11.70
2022-10-29T08:15:51.817Z,12.60
2022-10-29T08:18:28.092Z,11.10
2022-10-29T08:56:31.329Z,9.30
2022-10-29T08:59:13.264Z,12.50
2022-10-29T09:01:47.929Z,8.70
2022-10-29T09:04:31.016Z,16.40
2022-10-29T09:07:43.601Z,13.50
2022-10-29T09:10:32.595Z,9.20
2022-10-29T09:13:40.630Z,8.40
2022-10-29T09:16:35.658Z,13.00
2022-10-29T09:19:34.654Z,11.00
2022-10-29T09:22:21.154Z,9.10
2022-10-29T09:25:10.024Z,11.70
2022-10-29T09:28:07.195Z,9.20
2022-10-29T09:30:50.153Z,8.60
2022-10-29T09:33:26.374Z,10.60
2022-10-29T09:36:03.471Z,14.10
2022-10-29T09:38:44.278Z,10.40
2022-10-29T09:41:21.536Z,9.50
2022-10-29T09:44:05.252Z,9.10
2022-10-29T09:46:51.786Z,11.10
2022-10-29T09:49:53.159Z,12.20
2022-10-29T09:52:31.932Z,9.80
2022-10-29T09:55:13.318Z,7.30
2022-10-29T09:57:49.979Z,12.70
2022-10-29T10:00:29.425Z,8.40
2022-10-29T10:03:14.243Z,8.50
2022-10-29T10:06:06.881Z,8.80
2022-10-29T10:09:05.885Z,8.70
2022-10-29T10:11:44.256Z,10.00
2022-10-29T10:14:26.617Z,8.70
2022-10-29T10:17:03.992Z,11.30
2022-10-29T10:19:46.218Z,6.30
2022-10-29T10:22:26.027Z,7.00
2022-10-29T10:25:00.165Z,6.10
2022-10-29T10:27:35.835Z,10.90
2022-10-29T10:30:22.995Z,6.90
2022-10-29T10:33:13.910Z,10.90
2022-10-29T10:35:47.709Z,9.50
2022-10-29T10:38:22.795Z,9.60
2022-10-29T10:41:12.331Z,10.10
2022-10-29T10:43:49.857Z,7.30
2022-10-29T10:46:32.775Z,13.70
2022-10-29T10:49:15.054Z,10.00
2022-10-29T10:51:53.144Z,9.90
2022-10-29T10:54:38.427Z,9.40
2022-10-29T10:57:26.872Z,16.00
2022-10-29T11:00:07.779Z,11.10
2022-10-29T11:02:51.414Z,7.00
2022-10-29T11:05:30.323Z,10.40
2022-10-29T11:08:17.250Z,7.10
2022-10-29T11:11:00.464Z,7.80
2022-10-29T11:13:36.581Z,12.20
2022-10-29T11:16:21.989Z,9.90
2022-10-29T11:19:03.862Z,9.60
2022-10-29T11:21:46.959Z,7.70
2022-10-29T11:24:31.683Z,8.80
2022-10-29T11:27:15.372Z,8.30
2022-10-29T11:29:59.365Z,9.20
2022-10-29T11:32:53.429Z,8.30
2022-10-29T11:35:40.869Z,12.30
2022-10-29T11:38:26.184Z,7.60
2022-10-29T11:41:06.615Z,9.30
2022-10-29T11:43:40.370Z,6.40
2022-10-29T11:46:31.251Z,8.00
2022-10-29T11:49:23.336Z,11.00
2022-10-29T11:52:10.619Z,7.30
2022-10-29T11:55:07.867Z,8.10
2022-10-29T11:57:50.778Z,10.20
2022-10-29T12:00:32.011Z,11.40
2022-10-29T12:03:51.750Z,8.70
2022-10-29T12:06:40.724Z,10.80
2022-10-29T12:09:46.741Z,7.00
2022-10-29T12:12:34.070Z,6.30
2022-10-29T12:15:24.211Z,6.90
2022-10-29T12:18:16.113Z,8.60
2022-10-29T12:21:02.562Z,5.90
2022-10-29T12:23:58.337Z,8.50
2022-10-29T12:26:42.076Z,7.70
2022-10-29T12:29:27.921Z,7.90
2022-10-29T12:32:14.403Z,8.50
2022-10-29T12:34:57.563Z,5.80
2022-10-29T12:37:44.522Z,5.80
2022-10-29T13:25:54.924Z,6.60
2022-10-29T13:28:56.338Z,8.30
2022-10-29T13:31:52.031Z,6.50
2022-10-29T13:34:59.022Z,8.30
2022-10-29T13:37:53.787Z,9.20
2022-10-29T13:41:12.045Z,6.70
2022-10-29T13:43:59.016Z,8.00
2022-10-29T13:46:49.230Z,6.60
2022-10-29T13:49:28.268Z,5.40
2022-10-29T13:52:13.051Z,7.10
2022-10-29T13:54:51.619Z,7.50
2022-10-29T13:57:33.228Z,8.20
2022-10-29T14:00:18.054Z,6.40
2022-10-29T14:03:02.881Z,6.60
2022-10-29T14:05:45.859Z,7.40
2022-10-29T14:08:30.699Z,12.20
2022-10-29T14:11:14.039Z,9.60
2022-10-29T14:13:53.280Z,11.20
2022-10-29T14:16:33.762Z,10.10
2022-10-29T14:19:23.312Z,18.80
2022-10-29T14:21:56.942Z,21.10
2022-10-29T14:24:40.204Z,19.90
2022-10-29T14:27:16.998Z,23.50
2022-10-29T14:29:53.135Z,17.20
2022-10-29T14:32:29.253Z,10.50
2022-10-29T14:35:03.309Z,9.60
2022-10-29T14:37:42.035Z,8.90
2022-10-29T14:40:23.871Z,10.20
2022-10-29T14:42:59.831Z,9.20
2022-10-29T14:45:35.280Z,9.30
2022-10-29T14:48:19.039Z,8.10
2022-10-29T14:50:56.726Z,9.50
2022-10-29T14:53:39.817Z,10.60
2022-10-29T14:56:22.691Z,13.10
2022-10-29T14:58:56.978Z,12.40
2022-10-29T15:01:30.942Z,12.40
2022-10-29T15:04:04.874Z,14.20
2022-10-29T15:06:38.937Z,9.00
2022-10-29T15:09:28.122Z,10.40
2022-10-29T15:12:19.419Z,11.80
2022-10-29T15:14:55.257Z,14.50
2022-10-29T15:17:33.298Z,23.10
2022-10-29T15:20:20.538Z,25.90
2022-10-29T15:22:58.944Z,13.80
2022-10-29T15:25:38.053Z,12.30
2022-10-29T15:28:23.616Z,11.70
2022-10-29T15:30:57.747Z,10.40
2022-10-29T15:33:33.705Z,15.20
2022-10-29T15:36:09.086Z,14.30
2022-10-29T15:39:26.944Z,14.00
2022-10-29T15:42:03.312Z,14.10
2022-10-29T15:44:42.342Z,14.40
2022-10-29T15:47:31.184Z,12.80
2022-10-29T15:50:06.538Z,13.80
2022-10-29T15:52:45.807Z,11.50
2022-10-29T15:55:27.751Z,12.10
2022-10-29T15:58:07.065Z,12.90
2022-10-29T16:00:41.613Z,14.30
2022-10-29T16:03:21.732Z,14.40
2022-10-29T16:05:58.366Z,15.90
2022-10-29T16:08:41.937Z,14.00
2022-10-29T16:11:21.057Z,16.60
2022-10-29T16:13:57.047Z,16.20
2022-10-29T16:16:39.007Z,17.80
2022-10-29T16:19:12.697Z,20.40
2022-10-29T16:21:46.766Z,19.70
2022-10-29T16:24:20.836Z,21.80
2022-10-29T16:26:54.754Z,15.10
2022-10-29T16:29:29.018Z,17.30
2022-10-29T16:32:03.178Z,20.30
2022-10-29T16:34:37.409Z,24.60
2022-10-29T16:37:17.502Z,23.50
2022-10-29T16:39:51.921Z,22.60
2022-10-29T16:42:36.890Z,20.30
2022-10-29T16:45:17.116Z,20.60
2022-10-29T16:47:52.068Z,19.40
2022-10-29T16:50:29.027Z,19.10
2022-10-29T16:53:06.284Z,17.20
2022-10-29T16:55:43.085Z,18.80
2022-10-29T16:58:19.333Z,17.90
2022-10-29T17:01:02.538Z,20.00
2022-10-29T17:03:39.203Z,17.00
2022-10-29T17:06:14.907Z,18.60
2022-10-29T17:08:49.165Z,17.50
2022-10-29T17:11:23.590Z,14.20
2022-10-29T17:13:57.670Z,15.60
2022-10-29T17:16:31.890Z,14.20
2022-10-29T17:19:09.101Z,17.50
2022-10-29T17:21:43.556Z,23.10
2022-10-29T17:24:17.849Z,21.20
2022-10-29T17:26:51.553Z,18.80
2022-10-29T17:29:25.270Z,21.50
2022-10-29T17:31:59.240Z,21.60
2022-10-29T17:34:33.337Z,20.90
2022-10-29T17:37:07.842Z,20.10
2022-10-29T17:39:42.093Z,26.70
2022-10-29T17:42:15.897Z,20.20
2022-10-29T17:44:50.333Z,18.30
2022-10-29T17:47:25.828Z,21.80
2022-10-29T17:50:00.223Z,20.30
2022-10-29T17:52:34.828Z,19.30
2022-10-29T17:55:10.747Z,18.60
2022-10-29T17:57:44.989Z,13.80
2022-10-29T18:00:20.588Z,15.00
2022-10-29T18:02:55.355Z,15.70
2022-10-29T18:05:29.483Z,18.40
2022-10-29T18:08:03.545Z,17.00
2022-10-29T18:10:38.375Z,17.80
2022-10-29T18:13:12.778Z,17.70
2022-10-29T18:15:46.650Z,14.60
2022-10-29T18:18:20.439Z,18.20
2022-10-29T18:20:54.099Z,17.20
2022-10-29T18:23:27.836Z,15.00
2022-10-29T18:26:20.603Z,15.80
2022-10-29T18:28:55.789Z,16.00
2022-10-29T18:31:32.827Z,12.20
2022-10-29T18:34:09.563Z,12.90
2022-10-29T18:36:44.764Z,14.40
2022-10-29T18:39:19.090Z,20.60
2022-10-29T18:41:53.546Z,18.10
2022-10-29T18:44:27.492Z,17.60
2022-10-29T18:47:02.137Z,21.10
2022-10-29T18:49:36.210Z,22.80
2022-10-29T18:52:10.230Z,17.50
2022-10-29T18:54:44.757Z,20.60
2022-10-29T18:57:19.567Z,17.40
2022-10-29T18:59:54.273Z,19.00
2022-10-29T19:02:28.533Z,19.20
2022-10-29T19:05:03.052Z,21.70
2022-10-29T19:07:37.401Z,19.20
2022-10-29T19:10:13.620Z,18.70
2022-10-29T19:12:47.576Z,36.70
2022-10-29T19:15:21.711Z,25.90
2022-10-29T19:17:56.171Z,19.70
2022-10-29T19:20:31.823Z,18.60
2022-10-29T19:23:05.674Z,23.20
2022-10-29T19:25:43.617Z,20.10
2022-10-29T19:28:19.792Z,23.50
2022-10-29T19:30:53.284Z,28.50
2022-10-29T19:33:27.147Z,22.80
2022-10-29T19:36:01.739Z,26.70
2022-10-29T19:38:36.419Z,22.10
2022-10-29T19:41:12.504Z,25.60
2022-10-29T19:43:46.927Z,24.40
2022-10-29T19:46:24.926Z,27.90
2022-10-29T19:49:00.851Z,26.70
2022-10-29T19:51:35.400Z,28.80
2022-10-29T19:54:10.396Z,28.70
2022-10-29T19:56:44.277Z,29.40
2022-10-29T19:59:18.445Z,30.20
2022-10-29T20:01:53.210Z,21.30
2022-10-29T20:04:27.239Z,33.80
2022-10-29T20:07:02.061Z,23.70
2022-10-29T20:09:36.433Z,25.50
2022-10-29T20:12:11.395Z,26.20
2022-10-29T20:14:45.285Z,28.80
2022-10-29T20:17:19.136Z,30.50
2022-10-29T20:19:53.046Z,24.10
2022-10-29T20:22:26.975Z,27.80
2022-10-29T20:25:01.006Z,29.10
2022-10-29T20:27:34.823Z,24.90
2022-10-29T20:30:11.852Z,22.40
2022-10-29T20:32:46.440Z,24.60
2022-10-29T20:36:14.172Z,21.70
2022-10-29T20:38:51.351Z,25.10
2022-10-29T20:41:26.408Z,22.30
2022-10-29T20:44:03.335Z,20.80
2022-10-29T20:46:40.960Z,22.60
2022-10-29T20:49:17.659Z,23.00
2022-10-29T20:51:51.578Z,23.50
2022-10-29T20:54:25.590Z,21.70
2022-10-29T20:56:59.430Z,22.70
2022-10-29T20:59:33.266Z,23.10
2022-10-29T21:02:07.500Z,23.80
2022-10-29T21:04:42.068Z,23.10
2022-10-29T21:07:16.177Z,23.90
2022-10-29T21:09:50.094Z,25.00
2022-10-29T21:12:24.003Z,23.10
2022-10-29T21:14:57.775Z,24.10
2022-10-29T21:17:31.720Z,23.10
2022-10-29T21:20:05.958Z,21.50
2022-10-29T21:22:39.691Z,22.50
2022-10-29T21:25:14.102Z,23.50
2022-10-29T21:27:47.848Z,20.80
2022-10-29T21:30:21.616Z,18.70
2022-10-29T21:32:56.289Z,17.50
2022-10-29T21:35:30.205Z,18.30
2022-10-29T21:38:03.997Z,19.90
2022-10-29T21:40:37.863Z,24.00
2022-10-29T21:43:11.553Z,17.90
2022-10-29T21:45:46.678Z,18.20
2022-10-29T21:48:20.953Z,20.70
2022-10-29T21:51:02.271Z,23.10
2022-10-29T21:53:36.424Z,24.10
2022-10-29T21:56:14.270Z,20.10
2022-10-29T21:58:48.021Z,25.90
2022-10-29T22:01:22.347Z,18.90
2022-10-29T22:03:56.688Z,16.80
2022-10-29T22:06:30.402Z,21.00
2022-10-29T22:09:04.818Z,18.70
2022-10-29T22:11:38.783Z,16.10
2022-10-29T22:14:12.817Z,17.60
2022-10-29T22:16:46.563Z,17.30
2022-10-29T22:19:20.378Z,17.10
2022-10-29T22:21:55.363Z,19.30
2022-10-29T22:24:29.062Z,22.80
2022-10-29T22:27:03.957Z,23.90
2022-10-29T22:29:37.627Z,22.60
2022-10-29T22:32:11.852Z,23.30
2022-10-29T22:34:45.842Z,22.50
2022-10-29T22:37:19.508Z,22.00
2022-10-29T22:39:53.372Z,18.00
2022-10-29T22:42:26.944Z,18.40
2022-10-29T22:45:00.648Z,22.10
2022-10-29T22:47:34.785Z,17.90
2022-10-29T22:50:10.310Z,19.20
2022-10-29T22:52:44.023Z,18.90
2022-10-29T22:55:17.978Z,26.60
2022-10-29T22:57:51.879Z,19.90
2022-10-29T23:00:25.797Z,18.60
2022-10-29T23:02:59.774Z,20.10
2022-10-29T23:05:33.703Z,24.30
2022-10-29T23:08:07.922Z,20.00
2022-10-29T23:10:41.647Z,19.70
2022-10-29T23:13:15.624Z,20.40
2022-10-29T23:15:53.887Z,20.70
2022-10-29T23:18:27.462Z,21.40
2022-10-29T23:21:07.702Z,23.50
2022-10-29T23:23:41.660Z,26.70
2022-10-29T23:26:15.769Z,23.70
2022-10-29T23:28:50.394Z,26.90
2022-10-29T23:31:26.323Z,28.10
2022-10-29T23:34:01.294Z,24.40
2022-10-29T23:36:35.896Z,23.90
2022-10-29T23:39:10.095Z,27.60
2022-10-29T23:41:43.508Z,24.40
2022-10-29T23:44:16.971Z,26.20
2022-10-29T23:46:50.561Z,23.20
2022-10-29T23:49:24.453Z,22.40
2022-10-29T23:51:57.999Z,19.80
2022-10-29T23:54:31.593Z,20.70
2022-10-29T23:57:05.433Z,22.10
2022-10-29T23:59:40.342Z,25.10
